createdAt,value
2022-10-10T00:00:54.661Z,16.64
2022-10-10T00:05:49.302Z,16.62
2022-10-10T00:10:45.453Z,16.72
2022-10-10T00:15:49.129Z,16.12
2022-10-10T00:20:42.363Z,16.76
2022-10-10T00:25:38.512Z,16.12
2022-10-10T00:30:32.472Z,16.74
2022-10-10T00:35:27.410Z,16.65
2022-10-10T00:40:20.982Z,16.40
2022-10-10T00:45:24.362Z,16.46
2022-10-10T00:50:18.673Z,16.75
2022-10-10T00:55:15.040Z,16.57
2022-10-10T01:00:11.527Z,16.41
2022-10-10T01:05:05.286Z,16.34
2022-10-10T01:10:02.245Z,16.47
2022-10-10T01:15:02.905Z,15.79
2022-10-10T01:20:29.308Z,16.52
2022-10-10T01:25:30.326Z,16.45
2022-10-10T01:30:25.711Z,16.40
2022-10-10T01:35:32.282Z,16.37
2022-10-10T01:40:31.489Z,16.31
2022-10-10T01:45:26.300Z,16.27
2022-10-10T01:50:22.961Z,15.57
2022-10-10T01:55:34.911Z,15.71
2022-10-10T02:00:29.944Z,15.79
2022-10-10T02:05:31.026Z,15.83
2022-10-10T02:10:29.801Z,15.46
2022-10-10T02:15:26.080Z,15.78
2022-10-10T02:20:27.021Z,16.02
2022-10-10T02:25:25.022Z,15.93
2022-10-10T02:30:25.935Z,15.93
2022-10-10T02:35:25.727Z,15.11
2022-10-10T02:40:24.382Z,15.84
2022-10-10T02:45:18.308Z,15.79
2022-10-10T02:50:11.596Z,15.70
2022-10-10T02:55:07.231Z,15.63
2022-10-10T03:00:03.198Z,14.69
2022-10-10T03:04:58.498Z,15.67
2022-10-10T03:09:51.881Z,15.38
2022-10-10T03:14:46.505Z,15.09
2022-10-10T03:19:39.787Z,15.68
2022-10-10T03:24:33.381Z,14.71
2022-10-10T03:29:26.600Z,15.17
2022-10-10T03:34:21.346Z,15.07
2022-10-10T03:39:21.137Z,15.14
2022-10-10T03:44:14.274Z,15.86
2022-10-10T03:49:07.501Z,15.91
2022-10-10T03:54:02.202Z,15.38
2022-10-10T03:58:55.538Z,15.95
2022-10-10T04:03:52.018Z,15.98
2022-10-10T04:08:46.435Z,15.72
2022-10-10T04:13:40.990Z,15.07
2022-10-10T04:18:35.045Z,15.98
2022-10-10T04:23:29.035Z,15.77
2022-10-10T04:28:23.642Z,15.30
2022-10-10T04:33:18.250Z,15.97
2022-10-10T04:38:11.494Z,15.95
2022-10-10T04:43:05.829Z,15.21
2022-10-10T04:47:59.049Z,15.00
2022-10-10T04:52:53.970Z,15.88
2022-10-10T04:57:55.076Z,15.74
2022-10-10T05:03:09.901Z,15.41
2022-10-10T05:08:04.787Z,14.64
2022-10-10T05:12:58.062Z,15.49
2022-10-10T05:17:51.345Z,15.62
2022-10-10T05:22:46.358Z,15.87
2022-10-10T05:27:41.467Z,15.14
2022-10-10T05:32:35.421Z,15.90
2022-10-10T05:37:28.584Z,15.75
2022-10-10T05:42:23.483Z,15.80
2022-10-10T05:47:22.171Z,15.99
2022-10-10T05:52:18.656Z,15.23
2022-10-10T05:57:24.428Z,16.00
2022-10-10T06:02:36.241Z,14.32
2022-10-10T06:08:02.495Z,15.33
2022-10-10T06:12:54.376Z,15.26
2022-10-10T06:17:49.097Z,15.81
2022-10-10T06:22:42.308Z,16.11
2022-10-10T06:27:36.879Z,15.96
2022-10-10T06:32:29.986Z,16.09
2022-10-10T06:37:24.545Z,15.90
2022-10-10T06:42:17.777Z,16.38
2022-10-10T06:47:12.937Z,16.11
2022-10-10T06:52:06.127Z,16.55
2022-10-10T06:57:00.664Z,16.39
2022-10-10T07:01:55.279Z,16.62
2022-10-10T07:13:15.003Z,16.82
2022-10-10T07:18:08.621Z,16.85
2022-10-10T07:23:02.030Z,16.28
2022-10-10T07:27:57.000Z,17.02
2022-10-10T07:32:52.126Z,17.12
2022-10-10T07:37:46.084Z,17.17
2022-10-10T07:42:39.321Z,17.32
2022-10-10T07:47:32.491Z,17.55
2022-10-10T07:52:27.149Z,17.57
2022-10-10T07:57:23.068Z,17.58
2022-10-10T08:02:16.419Z,17.79
2022-10-10T08:07:09.741Z,17.95
2022-10-10T08:12:05.042Z,18.02
2022-10-10T08:16:58.293Z,18.18
2022-10-10T08:21:51.758Z,18.19
2022-10-10T08:26:44.859Z,18.43
2022-10-10T08:31:39.608Z,18.30
2022-10-10T08:36:32.991Z,18.62
2022-10-10T08:41:38.890Z,18.89
2022-10-10T08:46:43.890Z,19.11
2022-10-10T08:51:42.458Z,19.73
2022-10-10T08:56:45.513Z,20.02
2022-10-10T09:02:18.665Z,20.11
2022-10-10T09:07:15.104Z,20.17
2022-10-10T09:12:19.011Z,20.19
2022-10-10T09:17:24.124Z,20.09
2022-10-10T09:22:24.287Z,20.24
2022-10-10T09:27:23.797Z,20.25
2022-10-10T09:32:22.191Z,20.50
2022-10-10T09:37:35.596Z,20.44
2022-10-10T09:42:37.512Z,20.26
2022-10-10T09:47:30.820Z,20.13
2022-10-10T09:52:30.262Z,20.16
2022-10-10T09:57:27.994Z,20.06
2022-10-10T10:02:24.084Z,19.84
2022-10-10T10:07:31.309Z,20.01
2022-10-10T10:12:28.577Z,19.98
2022-10-10T10:17:25.162Z,20.44
2022-10-10T10:22:27.305Z,20.66
2022-10-10T10:27:23.863Z,20.58
2022-10-10T10:32:29.307Z,20.85
2022-10-10T10:37:25.254Z,20.74
2022-10-10T10:42:33.922Z,20.75
2022-10-10T10:47:42.403Z,20.96
2022-10-10T10:52:57.903Z,21.04
2022-10-10T11:05:15.967Z,20.88
2022-10-10T11:08:54.342Z,21.25
2022-10-10T11:13:57.213Z,21.32
2022-10-10T11:19:08.928Z,20.54
2022-10-10T11:24:06.296Z,21.57
2022-10-10T11:29:05.832Z,21.64
2022-10-10T11:34:04.107Z,21.07
2022-10-10T11:39:04.489Z,21.73
2022-10-10T11:44:03.208Z,21.54
2022-10-10T11:49:02.278Z,21.77
2022-10-10T11:54:00.317Z,21.91
2022-10-10T11:58:58.916Z,21.90
2022-10-10T12:03:53.606Z,21.86
2022-10-10T12:08:55.037Z,21.20
2022-10-10T12:13:54.867Z,21.96
2022-10-10T12:18:52.208Z,22.11
2022-10-10T12:23:50.428Z,22.09
2022-10-10T12:28:59.763Z,22.01
2022-10-10T12:34:05.318Z,21.25
2022-10-10T12:39:31.797Z,21.94
2022-10-10T12:44:43.001Z,21.83
2022-10-10T12:49:37.115Z,21.45
2022-10-10T12:54:34.524Z,22.14
2022-10-10T12:59:29.275Z,21.96
2022-10-10T13:04:24.855Z,22.13
2022-10-10T13:09:22.052Z,21.76
2022-10-10T13:14:15.404Z,21.81
2022-10-10T13:19:19.176Z,21.77
2022-10-10T13:24:17.783Z,21.82
2022-10-10T13:29:24.748Z,21.74
2022-10-10T13:34:26.409Z,21.89
2022-10-10T13:39:20.884Z,21.61
2022-10-10T13:44:16.565Z,21.64
2022-10-10T13:49:23.966Z,21.62
2022-10-10T13:54:39.906Z,21.29
2022-10-10T13:59:34.154Z,21.56
2022-10-10T14:04:34.213Z,21.23
2022-10-10T14:09:31.983Z,21.03
2022-10-10T14:14:33.132Z,21.05
2022-10-10T14:19:29.203Z,20.64
2022-10-10T14:24:22.471Z,20.48
2022-10-10T14:29:17.210Z,20.73
2022-10-10T14:34:17.123Z,20.57
2022-10-10T14:39:20.316Z,20.69
2022-10-10T14:44:18.657Z,20.26
2022-10-10T14:49:19.656Z,20.35
2022-10-10T14:54:19.993Z,20.31
2022-10-10T14:59:19.089Z,20.22
2022-10-10T15:04:38.244Z,19.78
2022-10-10T15:09:41.559Z,19.87
2022-10-10T15:14:37.104Z,19.93
2022-10-10T15:19:36.169Z,18.84
2022-10-10T15:24:35.014Z,19.76
2022-10-10T15:29:28.601Z,18.52
2022-10-10T15:34:27.501Z,19.23
2022-10-10T15:39:25.227Z,19.44
2022-10-10T15:44:24.329Z,19.03
2022-10-10T15:49:20.471Z,19.21
2022-10-10T15:54:14.454Z,18.67
2022-10-10T16:04:28.335Z,17.99
2022-10-10T16:09:30.769Z,17.85
2022-10-10T16:14:29.090Z,18.05
2022-10-10T16:19:23.241Z,18.08
2022-10-10T16:24:16.758Z,17.97
2022-10-10T16:29:12.771Z,17.80
2022-10-10T16:34:13.144Z,17.36
2022-10-10T16:39:09.741Z,17.04
2022-10-10T16:44:41.315Z,17.88
2022-10-10T16:49:36.538Z,16.75
2022-10-10T16:54:33.251Z,17.83
2022-10-10T16:59:28.337Z,18.16
2022-10-10T17:04:41.098Z,17.79
2022-10-10T17:09:36.561Z,16.88
2022-10-10T17:14:33.526Z,17.68
2022-10-10T17:19:37.824Z,17.96
2022-10-10T17:24:52.302Z,17.35
2022-10-10T17:30:28.070Z,17.83
2022-10-10T17:35:26.213Z,17.20
2022-10-10T17:40:26.661Z,16.58
2022-10-10T17:46:39.027Z,16.20
2022-10-10T17:51:36.589Z,17.57
2022-10-10T17:56:32.938Z,17.12
2022-10-10T18:01:30.980Z,16.32
2022-10-10T18:07:09.930Z,16.23
2022-10-10T18:12:42.526Z,15.74
2022-10-10T18:17:47.294Z,17.30
2022-10-10T18:22:42.804Z,16.88
2022-10-10T18:27:41.846Z,16.73
2022-10-10T18:32:45.510Z,16.73
2022-10-10T18:37:48.609Z,17.13
2022-10-10T18:42:51.458Z,17.07
2022-10-10T18:47:45.245Z,16.45
2022-10-10T18:52:38.656Z,16.15
2022-10-10T18:57:47.466Z,15.82
2022-10-10T19:02:45.249Z,15.75
2022-10-10T19:07:38.774Z,16.61
2022-10-10T19:12:36.831Z,15.51
2022-10-10T19:17:33.703Z,16.15
2022-10-10T19:22:37.110Z,15.40
2022-10-10T19:27:39.134Z,16.55
2022-10-10T19:32:51.246Z,15.79
2022-10-10T19:38:01.387Z,16.81
2022-10-10T19:43:21.105Z,16.53
2022-10-10T19:48:32.128Z,15.27
2022-10-10T19:53:31.117Z,16.47
2022-10-10T19:58:29.670Z,16.01
2022-10-10T20:03:29.119Z,16.12
2022-10-10T20:08:32.601Z,16.42
2022-10-10T20:13:57.139Z,15.44
2022-10-10T20:18:57.856Z,16.14
2022-10-10T20:24:06.182Z,16.35
2022-10-10T20:29:03.990Z,15.35
2022-10-10T20:34:01.941Z,16.45
2022-10-10T20:38:55.984Z,15.35
2022-10-10T20:43:50.990Z,16.33
2022-10-10T20:49:05.259Z,15.20
2022-10-10T20:54:01.311Z,14.97
2022-10-10T20:59:03.233Z,15.00
2022-10-10T21:03:57.229Z,14.98
2022-10-10T21:08:51.752Z,16.11
2022-10-10T21:13:46.790Z,15.67
2022-10-10T21:18:43.016Z,15.90
2022-10-10T21:23:42.022Z,16.03
2022-10-10T21:28:36.085Z,15.81
2022-10-10T21:33:29.966Z,15.91
2022-10-10T21:38:24.965Z,15.91
2022-10-10T21:43:19.207Z,15.00
2022-10-10T21:48:13.774Z,15.53
2022-10-10T21:53:08.275Z,15.65
2022-10-10T21:58:02.922Z,15.84
2022-10-10T22:02:56.154Z,15.75
2022-10-10T22:07:49.243Z,15.54
2022-10-10T22:12:42.466Z,15.79
2022-10-10T22:17:40.127Z,15.73
2022-10-10T22:22:36.085Z,15.53
2022-10-10T22:27:29.302Z,15.74
2022-10-10T22:32:22.630Z,15.47
2022-10-10T22:37:17.261Z,14.97
2022-10-10T22:42:10.482Z,15.15
2022-10-10T22:47:04.918Z,15.01
2022-10-10T22:51:58.170Z,14.97
2022-10-10T22:56:52.776Z,14.80
2022-10-10T23:01:46.384Z,15.56
2022-10-10T23:06:39.544Z,15.51
2022-10-10T23:11:32.886Z,15.49
2022-10-10T23:16:27.457Z,14.76
2022-10-10T23:21:20.919Z,15.34
2022-10-10T23:26:15.008Z,14.14
2022-10-10T23:31:10.238Z,14.00
2022-10-10T23:36:07.754Z,14.92
2022-10-10T23:41:04.258Z,15.00
2022-10-10T23:45:57.524Z,14.55
2022-10-10T23:50:50.816Z,14.93
2022-10-10T23:55:45.513Z,14.42
